sensor_id;sensor_type;location;lat;lon;timestamp;temperature;humidity
21834;DHT22;11079;51.092;3.458;2023-08-30T00:01:59;14.00;99.90
21834;DHT22;11079;51.092;3.458;2023-08-30T00:04:25;14.10;99.90
21834;DHT22;11079;51.092;3.458;2023-08-30T00:06:51;14.10;99.90
21834;DHT22;11079;51.092;3.458;2023-08-30T00:09:16;14.30;99.90
21834;DHT22;11079;51.092;3.458;2023-08-30T00:11:42;14.20;99.90
21834;DHT22;11079;51.092;3.458;2023-08-30T00:14:07;14.20;99.90
21834;DHT22;11079;51.092;3.458;2023-08-30T00:16:34;14.20;99.90
21834;DHT22;11079;51.092;3.458;2023-08-30T00:18:59;14.10;99.90
21834;DHT22;11079;51.092;3.458;2023-08-30T00:21:26;14.30;99.90
21834;DHT22;11079;51.092;3.458;2023-08-30T00:23:52;14.20;99.90
21834;DHT22;11079;51.092;3.458;2023-08-30T00:26:18;14.20;99.90
21834;DHT22;11079;51.092;3.458;2023-08-30T00:28:44;14.20;99.90
21834;DHT22;11079;51.092;3.458;2023-08-30T00:31:09;14.00;99.90
21834;DHT22;11079;51.092;3.458;2023-08-30T00:33:35;13.90;99.90
21834;DHT22;11079;51.092;3.458;2023-08-30T00:36:01;13.90;99.90
21834;DHT22;11079;51.092;3.458;2023-08-30T00:38:27;13.90;99.90
21834;DHT22;11079;51.092;3.458;2023-08-30T00:40:53;14.00;99.90
21834;DHT22;11079;51.092;3.458;2023-08-30T00:43:20;13.90;99.90
21834;DHT22;11079;51.092;3.458;2023-08-30T00:45:47;13.90;99.90
21834;DHT22;11079;51.092;3.458;2023-08-30T00:48:13;13.90;99.90
21834;DHT22;11079;51.092;3.458;2023-08-30T00:50:41;13.80;99.90
21834;DHT22;11079;51.092;3.458;2023-08-30T00:53:07;13.90;99.90
21834;DHT22;11079;51.092;3.458;2023-08-30T00:55:35;13.80;99.90
21834;DHT22;11079;51.092;3.458;2023-08-30T00:58:03;13.70;99.90
21834;DHT22;11079;51.092;3.458;2023-08-30T01:00:33;13.90;99.90
21834;DHT22;11079;51.092;3.458;2023-08-30T01:02:58;14.10;99.90
21834;DHT22;11079;51.092;3.458;2023-08-30T01:05:24;14.20;99.90
21834;DHT22;11079;51.092;3.458;2023-08-30T01:07:53;14.40;99.90
21834;DHT22;11079;51.092;3.458;2023-08-30T01:10:25;14.40;99.90
21834;DHT22;11079;51.092;3.458;2023-08-30T01:12:58;14.40;99.90
21834;DHT22;11079;51.092;3.458;2023-08-30T01:15:26;14.70;99.90
21834;DHT22;11079;51.092;3.458;2023-08-30T01:17:53;14.70;99.90
21834;DHT22;11079;51.092;3.458;2023-08-30T01:20:21;14.60;99.90
21834;DHT22;11079;51.092;3.458;2023-08-30T01:25:38;14.60;99.90
21834;DHT22;11079;51.092;3.458;2023-08-30T01:28:06;14.60;99.90
21834;DHT22;11079;51.092;3.458;2023-08-30T01:30:35;14.60;99.90
21834;DHT22;11079;51.092;3.458;2023-08-30T01:33:03;14.60;99.90
21834;DHT22;11079;51.092;3.458;2023-08-30T01:35:31;14.70;99.90
21834;DHT22;11079;51.092;3.458;2023-08-30T01:38:05;14.70;99.90
21834;DHT22;11079;51.092;3.458;2023-08-30T01:40:35;14.50;99.90
21834;DHT22;11079;51.092;3.458;2023-08-30T01:43:02;14.40;99.90
21834;DHT22;11079;51.092;3.458;2023-08-30T01:45:33;14.40;99.90
21834;DHT22;11079;51.092;3.458;2023-08-30T01:47:59;14.40;99.90
21834;DHT22;11079;51.092;3.458;2023-08-30T01:50:26;14.40;99.90
21834;DHT22;11079;51.092;3.458;2023-08-30T01:52:53;14.40;99.90
21834;DHT22;11079;51.092;3.458;2023-08-30T01:55:20;14.60;99.90
21834;DHT22;11079;51.092;3.458;2023-08-30T01:57:47;14.70;99.90
21834;DHT22;11079;51.092;3.458;2023-08-30T02:00:13;14.90;99.90
21834;DHT22;11079;51.092;3.458;2023-08-30T02:02:38;14.90;99.90
21834;DHT22;11079;51.092;3.458;2023-08-30T02:05:04;14.90;99.90
21834;DHT22;11079;51.092;3.458;2023-08-30T02:10:25;14.90;99.90
21834;DHT22;11079;51.092;3.458;2023-08-30T02:12:54;14.70;99.90
21834;DHT22;11079;51.092;3.458;2023-08-30T02:15:20;14.70;99.90
21834;DHT22;11079;51.092;3.458;2023-08-30T02:17:48;14.80;99.90
21834;DHT22;11079;51.092;3.458;2023-08-30T02:20:14;14.70;99.90
21834;DHT22;11079;51.092;3.458;2023-08-30T02:22:40;14.60;99.90
21834;DHT22;11079;51.092;3.458;2023-08-30T02:25:06;14.70;99.90
21834;DHT22;11079;51.092;3.458;2023-08-30T02:27:33;14.60;99.90
21834;DHT22;11079;51.092;3.458;2023-08-30T02:30:00;14.60;99.90
21834;DHT22;11079;51.092;3.458;2023-08-30T02:32:25;14.50;99.90
21834;DHT22;11079;51.092;3.458;2023-08-30T02:34:56;14.60;99.90
21834;DHT22;11079;51.092;3.458;2023-08-30T02:37:22;14.70;99.90
21834;DHT22;11079;51.092;3.458;2023-08-30T02:39:48;14.40;99.90
21834;DHT22;11079;51.092;3.458;2023-08-30T02:42:13;14.50;99.90
21834;DHT22;11079;51.092;3.458;2023-08-30T02:44:39;14.60;99.90
21834;DHT22;11079;51.092;3.458;2023-08-30T02:47:05;14.60;99.90
21834;DHT22;11079;51.092;3.458;2023-08-30T02:49:30;14.70;99.90
21834;DHT22;11079;51.092;3.458;2023-08-30T02:51:56;14.70;99.90
21834;DHT22;11079;51.092;3.458;2023-08-30T02:54:22;14.70;99.90
21834;DHT22;11079;51.092;3.458;2023-08-30T02:56:48;14.70;99.90
21834;DHT22;11079;51.092;3.458;2023-08-30T02:59:14;14.60;99.90
21834;DHT22;11079;51.092;3.458;2023-08-30T03:01:39;14.60;99.90
21834;DHT22;11079;51.092;3.458;2023-08-30T03:04:05;14.60;99.90
21834;DHT22;11079;51.092;3.458;2023-08-30T03:06:35;14.60;99.90
21834;DHT22;11079;51.092;3.458;2023-08-30T03:09:01;14.60;99.90
21834;DHT22;11079;51.092;3.458;2023-08-30T03:11:28;14.60;99.90
21834;DHT22;11079;51.092;3.458;2023-08-30T03:13:54;14.60;99.90
21834;DHT22;11079;51.092;3.458;2023-08-30T03:16:20;14.60;99.90
21834;DHT22;11079;51.092;3.458;2023-08-30T03:18:47;14.70;99.90
21834;DHT22;11079;51.092;3.458;2023-08-30T03:21:13;14.70;99.90
21834;DHT22;11079;51.092;3.458;2023-08-30T03:23:40;14.60;99.90
21834;DHT22;11079;51.092;3.458;2023-08-30T03:26:10;14.60;99.90
21834;DHT22;11079;51.092;3.458;2023-08-30T03:28:37;14.70;99.90
21834;DHT22;11079;51.092;3.458;2023-08-30T03:31:20;14.80;99.90
21834;DHT22;11079;51.092;3.458;2023-08-30T03:33:47;14.70;99.90
21834;DHT22;11079;51.092;3.458;2023-08-30T03:36:16;14.50;99.90
21834;DHT22;11079;51.092;3.458;2023-08-30T03:38:43;14.60;99.90
21834;DHT22;11079;51.092;3.458;2023-08-30T03:41:10;14.60;99.90
21834;DHT22;11079;51.092;3.458;2023-08-30T03:43:37;14.60;99.90
21834;DHT22;11079;51.092;3.458;2023-08-30T03:46:04;14.60;99.90
21834;DHT22;11079;51.092;3.458;2023-08-30T03:48:34;14.50;99.90
21834;DHT22;11079;51.092;3.458;2023-08-30T03:51:07;14.50;99.90
21834;DHT22;11079;51.092;3.458;2023-08-30T03:53:41;14.60;99.90
21834;DHT22;11079;51.092;3.458;2023-08-30T03:56:12;14.50;99.90
21834;DHT22;11079;51.092;3.458;2023-08-30T03:58:38;14.40;99.90
21834;DHT22;11079;51.092;3.458;2023-08-30T04:01:07;14.30;99.90
21834;DHT22;11079;51.092;3.458;2023-08-30T04:03:34;14.50;99.90
21834;DHT22;11079;51.092;3.458;2023-08-30T04:05:59;14.60;99.90
21834;DHT22;11079;51.092;3.458;2023-08-30T04:08:27;14.50;99.90
21834;DHT22;11079;51.092;3.458;2023-08-30T04:10:55;14.30;99.90
21834;DHT22;11079;51.092;3.458;2023-08-30T04:13:22;14.50;99.90
21834;DHT22;11079;51.092;3.458;2023-08-30T04:15:49;14.40;99.90
21834;DHT22;11079;51.092;3.458;2023-08-30T04:18:15;14.30;99.90
21834;DHT22;11079;51.092;3.458;2023-08-30T04:20:45;14.40;99.90
21834;DHT22;11079;51.092;3.458;2023-08-30T04:23:11;14.40;99.90
21834;DHT22;11079;51.092;3.458;2023-08-30T04:25:38;14.50;99.90
21834;DHT22;11079;51.092;3.458;2023-08-30T04:28:04;14.50;99.90
21834;DHT22;11079;51.092;3.458;2023-08-30T04:30:30;14.40;99.90
21834;DHT22;11079;51.092;3.458;2023-08-30T04:32:57;14.40;99.90
21834;DHT22;11079;51.092;3.458;2023-08-30T04:35:23;14.50;99.90
21834;DHT22;11079;51.092;3.458;2023-08-30T04:37:54;14.40;99.90
21834;DHT22;11079;51.092;3.458;2023-08-30T04:40:45;14.40;99.90
21834;DHT22;11079;51.092;3.458;2023-08-30T04:43:12;14.50;99.90
21834;DHT22;11079;51.092;3.458;2023-08-30T04:45:55;14.70;99.90
21834;DHT22;11079;51.092;3.458;2023-08-30T04:48:27;14.60;99.90
21834;DHT22;11079;51.092;3.458;2023-08-30T04:51:23;14.70;99.90
21834;DHT22;11079;51.092;3.458;2023-08-30T04:53:53;14.80;99.90
21834;DHT22;11079;51.092;3.458;2023-08-30T04:56:30;14.70;99.90
21834;DHT22;11079;51.092;3.458;2023-08-30T04:59:07;14.60;99.90
21834;DHT22;11079;51.092;3.458;2023-08-30T05:58:39;15.20;99.90
21834;DHT22;11079;51.092;3.458;2023-08-30T06:01:10;15.40;99.90
21834;DHT22;11079;51.092;3.458;2023-08-30T06:03:39;15.50;99.90
21834;DHT22;11079;51.092;3.458;2023-08-30T06:06:11;15.60;99.90
21834;DHT22;11079;51.092;3.458;2023-08-30T06:09:03;15.70;99.90
21834;DHT22;11079;51.092;3.458;2023-08-30T06:11:36;15.70;99.90
21834;DHT22;11079;51.092;3.458;2023-08-30T06:14:13;15.70;99.90
21834;DHT22;11079;51.092;3.458;2023-08-30T06:16:58;15.80;99.90
21834;DHT22;11079;51.092;3.458;2023-08-30T06:19:29;15.80;99.90
21834;DHT22;11079;51.092;3.458;2023-08-30T06:22:22;15.80;99.90
21834;DHT22;11079;51.092;3.458;2023-08-30T06:24:52;15.90;99.90
21834;DHT22;11079;51.092;3.458;2023-08-30T06:27:20;15.70;99.90
21834;DHT22;11079;51.092;3.458;2023-08-30T06:29:51;15.80;99.90
21834;DHT22;11079;51.092;3.458;2023-08-30T06:37:53;15.90;99.90
21834;DHT22;11079;51.092;3.458;2023-08-30T06:43:06;16.00;99.90
21834;DHT22;11079;51.092;3.458;2023-08-30T06:45:34;16.00;99.90
21834;DHT22;11079;51.092;3.458;2023-08-30T06:47:59;16.20;99.90
21834;DHT22;11079;51.092;3.458;2023-08-30T06:50:34;16.30;99.90
21834;DHT22;11079;51.092;3.458;2023-08-30T06:53:04;16.60;99.90
21834;DHT22;11079;51.092;3.458;2023-08-30T06:55:30;16.80;99.90
21834;DHT22;11079;51.092;3.458;2023-08-30T06:57:57;17.00;99.90
21834;DHT22;11079;51.092;3.458;2023-08-30T07:00:22;17.00;99.90
21834;DHT22;11079;51.092;3.458;2023-08-30T07:02:48;17.10;99.90
21834;DHT22;11079;51.092;3.458;2023-08-30T07:05:14;17.20;99.90
21834;DHT22;11079;51.092;3.458;2023-08-30T07:07:40;17.30;99.90
21834;DHT22;11079;51.092;3.458;2023-08-30T07:10:06;17.40;99.90
21834;DHT22;11079;51.092;3.458;2023-08-30T07:12:32;17.40;99.90
21834;DHT22;11079;51.092;3.458;2023-08-30T07:15:04;17.40;99.90
21834;DHT22;11079;51.092;3.458;2023-08-30T07:17:34;17.40;99.90
21834;DHT22;11079;51.092;3.458;2023-08-30T07:20:03;17.60;99.90
21834;DHT22;11079;51.092;3.458;2023-08-30T07:22:38;18.40;99.90
21834;DHT22;11079;51.092;3.458;2023-08-30T07:25:12;20.80;99.90
21834;DHT22;11079;51.092;3.458;2023-08-30T07:27:43;22.10;99.90
21834;DHT22;11079;51.092;3.458;2023-08-30T07:30:10;23.90;99.90
21834;DHT22;11079;51.092;3.458;2023-08-30T07:32:37;25.10;99.90
21834;DHT22;11079;51.092;3.458;2023-08-30T07:35:05;25.90;99.90
21834;DHT22;11079;51.092;3.458;2023-08-30T07:37:31;26.80;99.90
21834;DHT22;11079;51.092;3.458;2023-08-30T07:39:56;26.70;99.90
21834;DHT22;11079;51.092;3.458;2023-08-30T07:42:22;27.10;99.90
21834;DHT22;11079;51.092;3.458;2023-08-30T07:44:47;27.10;99.90
21834;DHT22;11079;51.092;3.458;2023-08-30T07:47:13;27.50;99.90
21834;DHT22;11079;51.092;3.458;2023-08-30T07:49:40;26.70;99.90
21834;DHT22;11079;51.092;3.458;2023-08-30T07:52:06;25.50;99.90
21834;DHT22;11079;51.092;3.458;2023-08-30T07:54:33;24.30;99.90
21834;DHT22;11079;51.092;3.458;2023-08-30T07:56:59;23.60;99.90
21834;DHT22;11079;51.092;3.458;2023-08-30T07:59:25;23.30;99.90
21834;DHT22;11079;51.092;3.458;2023-08-30T08:01:53;24.10;99.90
21834;DHT22;11079;51.092;3.458;2023-08-30T08:04:19;25.90;99.90
21834;DHT22;11079;51.092;3.458;2023-08-30T08:06:44;27.30;99.90
21834;DHT22;11079;51.092;3.458;2023-08-30T08:09:10;27.10;99.90
21834;DHT22;11079;51.092;3.458;2023-08-30T08:11:35;26.50;99.90
21834;DHT22;11079;51.092;3.458;2023-08-30T08:14:01;27.20;99.90
21834;DHT22;11079;51.092;3.458;2023-08-30T08:16:29;28.10;99.90
21834;DHT22;11079;51.092;3.458;2023-08-30T08:18:54;28.00;99.90
21834;DHT22;11079;51.092;3.458;2023-08-30T08:21:20;28.20;99.90
21834;DHT22;11079;51.092;3.458;2023-08-30T08:23:46;28.80;99.90
21834;DHT22;11079;51.092;3.458;2023-08-30T08:26:14;29.50;99.90
21834;DHT22;11079;51.092;3.458;2023-08-30T08:28:40;30.00;99.90
21834;DHT22;11079;51.092;3.458;2023-08-30T08:31:06;28.80;99.90
21834;DHT22;11079;51.092;3.458;2023-08-30T08:33:32;29.20;99.90
21834;DHT22;11079;51.092;3.458;2023-08-30T08:35:58;28.50;99.90
21834;DHT22;11079;51.092;3.458;2023-08-30T08:38:23;27.40;99.90
21834;DHT22;11079;51.092;3.458;2023-08-30T08:40:51;26.90;99.90
21834;DHT22;11079;51.092;3.458;2023-08-30T08:43:19;27.50;99.90
21834;DHT22;11079;51.092;3.458;2023-08-30T08:45:45;27.40;99.90
21834;DHT22;11079;51.092;3.458;2023-08-30T08:48:13;28.30;99.90
21834;DHT22;11079;51.092;3.458;2023-08-30T08:50:39;27.10;99.90
21834;DHT22;11079;51.092;3.458;2023-08-30T08:53:06;26.80;99.90
21834;DHT22;11079;51.092;3.458;2023-08-30T08:55:32;26.60;99.90
21834;DHT22;11079;51.092;3.458;2023-08-30T08:58:00;25.20;99.90
21834;DHT22;11079;51.092;3.458;2023-08-30T09:00:27;23.80;99.90
21834;DHT22;11079;51.092;3.458;2023-08-30T09:03:00;23.10;99.90
21834;DHT22;11079;51.092;3.458;2023-08-30T09:05:26;25.00;99.90
21834;DHT22;11079;51.092;3.458;2023-08-30T09:07:54;25.80;99.90
21834;DHT22;11079;51.092;3.458;2023-08-30T09:10:21;25.50;99.90
21834;DHT22;11079;51.092;3.458;2023-08-30T09:12:47;24.10;99.90
21834;DHT22;11079;51.092;3.458;2023-08-30T09:15:13;22.70;99.90
21834;DHT22;11079;51.092;3.458;2023-08-30T09:17:40;23.40;99.90
21834;DHT22;11079;51.092;3.458;2023-08-30T09:20:12;25.30;99.90
21834;DHT22;11079;51.092;3.458;2023-08-30T09:22:42;27.00;99.90
21834;DHT22;11079;51.092;3.458;2023-08-30T09:25:09;28.60;99.90
21834;DHT22;11079;51.092;3.458;2023-08-30T09:27:36;29.10;99.90
21834;DHT22;11079;51.092;3.458;2023-08-30T09:30:07;28.50;99.90
21834;DHT22;11079;51.092;3.458;2023-08-30T09:32:41;28.70;99.90
21834;DHT22;11079;51.092;3.458;2023-08-30T09:35:08;28.90;99.90
21834;DHT22;11079;51.092;3.458;2023-08-30T09:37:37;29.60;99.90
21834;DHT22;11079;51.092;3.458;2023-08-30T09:40:03;29.30;99.90
21834;DHT22;11079;51.092;3.458;2023-08-30T09:42:40;30.50;99.90
21834;DHT22;11079;51.092;3.458;2023-08-30T09:45:26;31.00;99.90
21834;DHT22;11079;51.092;3.458;2023-08-30T09:47:52;29.90;99.40
21834;DHT22;11079;51.092;3.458;2023-08-30T09:50:19;27.50;99.60
21834;DHT22;11079;51.092;3.458;2023-08-30T09:52:49;26.90;99.90
21834;DHT22;11079;51.092;3.458;2023-08-30T09:55:18;26.30;99.90
21834;DHT22;11079;51.092;3.458;2023-08-30T09:57:44;25.90;99.90
21834;DHT22;11079;51.092;3.458;2023-08-30T10:00:13;25.10;99.90
21834;DHT22;11079;51.092;3.458;2023-08-30T10:02:41;24.60;99.90
21834;DHT22;11079;51.092;3.458;2023-08-30T10:05:10;24.60;99.90
21834;DHT22;11079;51.092;3.458;2023-08-30T10:07:36;25.30;99.90
21834;DHT22;11079;51.092;3.458;2023-08-30T10:10:06;26.10;99.90
21834;DHT22;11079;51.092;3.458;2023-08-30T10:12:33;27.60;99.90
21834;DHT22;11079;51.092;3.458;2023-08-30T10:14:59;28.50;99.90
21834;DHT22;11079;51.092;3.458;2023-08-30T10:17:33;29.30;99.70
21834;DHT22;11079;51.092;3.458;2023-08-30T10:20:05;27.40;99.60
21834;DHT22;11079;51.092;3.458;2023-08-30T10:22:36;27.90;99.60
21834;DHT22;11079;51.092;3.458;2023-08-30T10:25:06;27.10;99.90
21834;DHT22;11079;51.092;3.458;2023-08-30T10:27:38;26.40;99.90
21834;DHT22;11079;51.092;3.458;2023-08-30T10:30:06;25.80;99.90
21834;DHT22;11079;51.092;3.458;2023-08-30T10:32:39;25.20;99.90
21834;DHT22;11079;51.092;3.458;2023-08-30T10:35:05;24.60;99.90
21834;DHT22;11079;51.092;3.458;2023-08-30T10:37:31;24.40;99.90
21834;DHT22;11079;51.092;3.458;2023-08-30T10:40:00;24.00;99.90
21834;DHT22;11079;51.092;3.458;2023-08-30T10:42:29;24.10;99.90
21834;DHT22;11079;51.092;3.458;2023-08-30T10:45:06;23.80;99.90
21834;DHT22;11079;51.092;3.458;2023-08-30T10:47:36;23.70;99.90
21834;DHT22;11079;51.092;3.458;2023-08-30T10:50:09;24.60;99.90
21834;DHT22;11079;51.092;3.458;2023-08-30T10:52:35;25.90;99.90
21834;DHT22;11079;51.092;3.458;2023-08-30T10:57:34;29.00;99.90
21834;DHT22;11079;51.092;3.458;2023-08-30T11:00:19;29.50;99.90
21834;DHT22;11079;51.092;3.458;2023-08-30T11:02:49;27.50;99.30
21834;DHT22;11079;51.092;3.458;2023-08-30T11:05:21;25.90;99.90
21834;DHT22;11079;51.092;3.458;2023-08-30T11:07:48;25.30;99.90
21834;DHT22;11079;51.092;3.458;2023-08-30T11:10:18;26.50;99.90
21834;DHT22;11079;51.092;3.458;2023-08-30T11:12:45;25.80;99.90
21834;DHT22;11079;51.092;3.458;2023-08-30T11:15:15;24.20;99.90
21834;DHT22;11079;51.092;3.458;2023-08-30T11:17:42;23.20;99.90
21834;DHT22;11079;51.092;3.458;2023-08-30T11:20:15;24.30;99.90
21834;DHT22;11079;51.092;3.458;2023-08-30T11:22:48;25.40;99.90
21834;DHT22;11079;51.092;3.458;2023-08-30T11:25:15;24.70;99.90
21834;DHT22;11079;51.092;3.458;2023-08-30T11:27:42;23.90;99.90
21834;DHT22;11079;51.092;3.458;2023-08-30T11:30:09;24.50;99.90
21834;DHT22;11079;51.092;3.458;2023-08-30T11:32:37;25.50;99.90
21834;DHT22;11079;51.092;3.458;2023-08-30T11:35:04;27.60;99.90
21834;DHT22;11079;51.092;3.458;2023-08-30T11:37:30;28.60;99.90
21834;DHT22;11079;51.092;3.458;2023-08-30T11:39:56;28.20;99.90
21834;DHT22;11079;51.092;3.458;2023-08-30T11:42:22;27.80;99.90
21834;DHT22;11079;51.092;3.458;2023-08-30T11:44:50;27.20;99.90
21834;DHT22;11079;51.092;3.458;2023-08-30T11:47:25;25.50;99.90
21834;DHT22;11079;51.092;3.458;2023-08-30T11:49:55;24.00;99.90
21834;DHT22;11079;51.092;3.458;2023-08-30T11:52:22;24.40;99.90
21834;DHT22;11079;51.092;3.458;2023-08-30T11:54:50;25.80;99.90
21834;DHT22;11079;51.092;3.458;2023-08-30T11:57:16;26.30;99.90
21834;DHT22;11079;51.092;3.458;2023-08-30T11:59:42;26.10;99.90
21834;DHT22;11079;51.092;3.458;2023-08-30T12:02:08;25.10;99.90
21834;DHT22;11079;51.092;3.458;2023-08-30T12:04:44;23.90;99.90
21834;DHT22;11079;51.092;3.458;2023-08-30T12:07:24;23.10;99.90
21834;DHT22;11079;51.092;3.458;2023-08-30T12:09:51;23.60;99.90
21834;DHT22;11079;51.092;3.458;2023-08-30T12:12:18;23.60;99.90
21834;DHT22;11079;51.092;3.458;2023-08-30T12:14:45;22.50;99.90
21834;DHT22;11079;51.092;3.458;2023-08-30T12:17:12;22.10;99.90
21834;DHT22;11079;51.092;3.458;2023-08-30T12:19:38;21.60;99.90
21834;DHT22;11079;51.092;3.458;2023-08-30T12:22:06;21.50;99.90
21834;DHT22;11079;51.092;3.458;2023-08-30T12:24:45;23.00;99.90
21834;DHT22;11079;51.092;3.458;2023-08-30T12:27:12;23.50;99.90
21834;DHT22;11079;51.092;3.458;2023-08-30T12:29:39;23.30;99.90
21834;DHT22;11079;51.092;3.458;2023-08-30T12:32:06;22.20;99.90
21834;DHT22;11079;51.092;3.458;2023-08-30T12:34:32;21.80;99.90
21834;DHT22;11079;51.092;3.458;2023-08-30T12:36:58;21.60;99.90
21834;DHT22;11079;51.092;3.458;2023-08-30T12:39:24;21.60;99.90
21834;DHT22;11079;51.092;3.458;2023-08-30T12:41:50;21.70;99.90
21834;DHT22;11079;51.092;3.458;2023-08-30T12:44:15;21.90;99.90
21834;DHT22;11079;51.092;3.458;2023-08-30T12:46:42;22.90;99.90
21834;DHT22;11079;51.092;3.458;2023-08-30T12:49:08;23.40;99.90
21834;DHT22;11079;51.092;3.458;2023-08-30T12:51:33;23.00;99.90
21834;DHT22;11079;51.092;3.458;2023-08-30T12:53:59;24.00;99.90
21834;DHT22;11079;51.092;3.458;2023-08-30T12:56:25;24.60;99.90
21834;DHT22;11079;51.092;3.458;2023-08-30T12:58:51;25.20;99.90
21834;DHT22;11079;51.092;3.458;2023-08-30T13:01:17;24.10;99.90
21834;DHT22;11079;51.092;3.458;2023-08-30T13:03:44;24.40;99.90
21834;DHT22;11079;51.092;3.458;2023-08-30T13:06:09;25.00;99.90
21834;DHT22;11079;51.092;3.458;2023-08-30T13:08:35;25.60;99.90
21834;DHT22;11079;51.092;3.458;2023-08-30T13:11:01;25.50;99.90
21834;DHT22;11079;51.092;3.458;2023-08-30T13:13:26;24.60;99.90
21834;DHT22;11079;51.092;3.458;2023-08-30T13:15:58;24.90;99.90
21834;DHT22;11079;51.092;3.458;2023-08-30T13:18:24;24.40;99.90
21834;DHT22;11079;51.092;3.458;2023-08-30T13:20:49;23.80;99.90
21834;DHT22;11079;51.092;3.458;2023-08-30T13:23:15;23.30;99.90
21834;DHT22;11079;51.092;3.458;2023-08-30T13:25:41;22.90;99.90
21834;DHT22;11079;51.092;3.458;2023-08-30T13:28:07;22.20;99.90
21834;DHT22;11079;51.092;3.458;2023-08-30T13:30:33;21.70;99.90
21834;DHT22;11079;51.092;3.458;2023-08-30T13:32:59;21.90;99.90
21834;DHT22;11079;51.092;3.458;2023-08-30T13:35:25;21.80;99.90
21834;DHT22;11079;51.092;3.458;2023-08-30T13:37:50;21.60;99.90
21834;DHT22;11079;51.092;3.458;2023-08-30T13:40:18;21.50;99.90
21834;DHT22;11079;51.092;3.458;2023-08-30T13:42:44;21.30;99.90
21834;DHT22;11079;51.092;3.458;2023-08-30T13:45:10;21.40;99.90
21834;DHT22;11079;51.092;3.458;2023-08-30T13:47:35;22.20;99.90
21834;DHT22;11079;51.092;3.458;2023-08-30T13:50:01;22.60;99.90
21834;DHT22;11079;51.092;3.458;2023-08-30T13:52:29;22.40;99.90
21834;DHT22;11079;51.092;3.458;2023-08-30T13:54:55;21.90;99.90
21834;DHT22;11079;51.092;3.458;2023-08-30T13:57:21;22.30;99.90
21834;DHT22;11079;51.092;3.458;2023-08-30T13:59:47;23.30;99.90
21834;DHT22;11079;51.092;3.458;2023-08-30T14:02:14;24.70;99.90
21834;DHT22;11079;51.092;3.458;2023-08-30T14:04:43;25.00;99.90
21834;DHT22;11079;51.092;3.458;2023-08-30T14:07:10;24.50;99.90
21834;DHT22;11079;51.092;3.458;2023-08-30T14:09:37;24.70;99.90
21834;DHT22;11079;51.092;3.458;2023-08-30T14:12:03;24.80;99.90
21834;DHT22;11079;51.092;3.458;2023-08-30T14:14:29;24.60;99.90
21834;DHT22;11079;51.092;3.458;2023-08-30T14:16:55;24.60;99.90
21834;DHT22;11079;51.092;3.458;2023-08-30T14:19:21;24.40;99.90
21834;DHT22;11079;51.092;3.458;2023-08-30T14:21:46;24.00;99.90
21834;DHT22;11079;51.092;3.458;2023-08-30T14:24:12;23.70;99.90
21834;DHT22;11079;51.092;3.458;2023-08-30T14:26:38;23.40;99.90
21834;DHT22;11079;51.092;3.458;2023-08-30T14:29:03;23.40;99.90
21834;DHT22;11079;51.092;3.458;2023-08-30T14:31:29;23.60;99.90
21834;DHT22;11079;51.092;3.458;2023-08-30T14:33:56;24.10;99.90
21834;DHT22;11079;51.092;3.458;2023-08-30T14:36:22;24.30;99.90
21834;DHT22;11079;51.092;3.458;2023-08-30T14:38:49;24.40;99.90
21834;DHT22;11079;51.092;3.458;2023-08-30T14:41:14;24.80;99.90
21834;DHT22;11079;51.092;3.458;2023-08-30T14:43:42;24.70;99.90
21834;DHT22;11079;51.092;3.458;2023-08-30T14:46:07;24.10;99.90
21834;DHT22;11079;51.092;3.458;2023-08-30T14:48:33;23.60;99.90
21834;DHT22;11079;51.092;3.458;2023-08-30T14:51:05;22.90;99.90
21834;DHT22;11079;51.092;3.458;2023-08-30T14:53:31;22.20;99.90
21834;DHT22;11079;51.092;3.458;2023-08-30T14:55:56;21.60;99.90
21834;DHT22;11079;51.092;3.458;2023-08-30T14:58:22;21.30;99.90
21834;DHT22;11079;51.092;3.458;2023-08-30T15:00:48;21.40;99.90
21834;DHT22;11079;51.092;3.458;2023-08-30T15:03:15;21.10;99.90
21834;DHT22;11079;51.092;3.458;2023-08-30T15:05:40;21.00;99.90
21834;DHT22;11079;51.092;3.458;2023-08-30T15:08:06;21.00;99.90
21834;DHT22;11079;51.092;3.458;2023-08-30T15:10:32;20.80;99.90
21834;DHT22;11079;51.092;3.458;2023-08-30T15:12:57;20.30;99.90
21834;DHT22;11079;51.092;3.458;2023-08-30T15:15:23;20.00;99.90
21834;DHT22;11079;51.092;3.458;2023-08-30T15:17:49;19.80;99.90
21834;DHT22;11079;51.092;3.458;2023-08-30T15:20:14;20.00;99.90
21834;DHT22;11079;51.092;3.458;2023-08-30T15:22:40;20.20;99.90
21834;DHT22;11079;51.092;3.458;2023-08-30T15:25:06;20.40;99.90
21834;DHT22;11079;51.092;3.458;2023-08-30T15:27:33;20.70;99.90
21834;DHT22;11079;51.092;3.458;2023-08-30T15:29:59;20.90;99.90
21834;DHT22;11079;51.092;3.458;2023-08-30T15:32:25;21.00;99.90
21834;DHT22;11079;51.092;3.458;2023-08-30T15:34:51;21.10;99.90
21834;DHT22;11079;51.092;3.458;2023-08-30T15:37:17;21.40;99.90
21834;DHT22;11079;51.092;3.458;2023-08-30T15:39:43;21.20;99.90
21834;DHT22;11079;51.092;3.458;2023-08-30T15:42:08;20.90;99.90
21834;DHT22;11079;51.092;3.458;2023-08-30T15:44:34;20.80;99.90
21834;DHT22;11079;51.092;3.458;2023-08-30T15:47:00;20.70;99.90
21834;DHT22;11079;51.092;3.458;2023-08-30T15:49:25;20.70;99.90
21834;DHT22;11079;51.092;3.458;2023-08-30T15:51:51;20.70;99.90
21834;DHT22;11079;51.092;3.458;2023-08-30T15:54:16;20.60;99.90
21834;DHT22;11079;51.092;3.458;2023-08-30T15:56:42;20.70;99.90
21834;DHT22;11079;51.092;3.458;2023-08-30T15:59:11;20.90;99.90
21834;DHT22;11079;51.092;3.458;2023-08-30T16:01:38;21.00;99.90
21834;DHT22;11079;51.092;3.458;2023-08-30T16:04:03;21.00;99.90
21834;DHT22;11079;51.092;3.458;2023-08-30T16:06:29;21.00;99.90
21834;DHT22;11079;51.092;3.458;2023-08-30T16:08:55;20.70;99.90
21834;DHT22;11079;51.092;3.458;2023-08-30T16:11:20;20.60;99.90
21834;DHT22;11079;51.092;3.458;2023-08-30T16:13:46;20.50;99.90
21834;DHT22;11079;51.092;3.458;2023-08-30T16:16:12;20.20;99.90
21834;DHT22;11079;51.092;3.458;2023-08-30T16:18:37;20.20;99.90
21834;DHT22;11079;51.092;3.458;2023-08-30T16:21:04;20.30;99.90
21834;DHT22;11079;51.092;3.458;2023-08-30T16:23:31;20.20;99.90
21834;DHT22;11079;51.092;3.458;2023-08-30T16:26:01;20.20;99.90
21834;DHT22;11079;51.092;3.458;2023-08-30T16:29:04;20.00;99.90
21834;DHT22;11079;51.092;3.458;2023-08-30T16:31:35;20.00;99.90
21834;DHT22;11079;51.092;3.458;2023-08-30T16:36:43;19.90;99.90
21834;DHT22;11079;51.092;3.458;2023-08-30T16:39:24;19.80;99.90
21834;DHT22;11079;51.092;3.458;2023-08-30T16:42:07;19.70;99.90
21834;DHT22;11079;51.092;3.458;2023-08-30T16:44:33;19.70;99.90
21834;DHT22;11079;51.092;3.458;2023-08-30T16:46:59;19.80;99.90
21834;DHT22;11079;51.092;3.458;2023-08-30T16:49:28;19.90;99.90
21834;DHT22;11079;51.092;3.458;2023-08-30T16:51:54;19.70;99.90